Angelo Coast Range Reserve, California Weather observations

Data are for 10 minute period ending at time listed.
 Day   Time   Solar   Ave.   Ave.  Ave.  Vector  Max.   Baro.   Total    
  of    of     Rad.   Air    Rel.  Wind   Wind   Wind  Press.  Precip.   
Year   Day            Temp.  Hum.  Speed  Dir.   Gust                    
2016   (PST)  Kw/m2    F      %     mph   deg.    mph    mb.     in.     
-------------------------------------------------------------------------
 126    3:40   0.00   49.4    95    0.9   156     2.6   960.9    0.00 
 126    3:50   0.00   49.5    94    0.1   344     1.1   960.9    0.00 
 126    4:00   0.00   49.6    95    0.3     7     1.3   960.9    0.00 
 126    4:10   0.00   49.7    94    0.2   102     0.9   960.9    0.00 
 126    4:20   0.00   49.9    93    0.0   126     0.7   960.9    0.00 
 126    4:30   0.00   49.9    93    0.1   126     0.6   960.9    0.00 
 126    4:40   0.00   49.9    93    0.0    24     0.6   960.8    0.00 
 126    4:50   0.00   50.0    93    0.0     0     0.0   960.8    0.00 
 126    5:00   0.00   50.0    93    0.0     0     0.0   960.8    0.00 
 126    5:10   0.00   50.1    93    0.3    20     0.9   960.7    0.00 
 126    5:20   0.00   50.1    93    0.0    20     0.6   960.8    0.00 
 126    5:30   0.00   50.1    93    1.6   173     3.4   960.9    0.00 
 126    5:40   0.00   49.8    92    1.8   180     3.7   961.0    0.00 
 126    5:50   0.01   49.9    92    1.8   165     2.9   961.0    0.00 
 126    6:00   0.01   49.8    92    2.6   174     4.5   961.0    0.00 
 126    6:10   0.01   49.7    92    0.1   130     1.2   961.0    0.00 
 126    6:20   0.02   50.1    92    0.3   336     2.0   961.1    0.00 
 126    6:30   0.03   50.1    92    0.3   146     1.3   961.2    0.00 
 126    6:40   0.03   50.1    92    1.5   185     2.1   961.3    0.00 
 126    6:50   0.03   50.1    92    1.3   191     2.1   961.2    0.00 
 126    7:00   0.05   50.4    92    0.3   245     1.4   961.2    0.00 
 126    7:10   0.07   50.7    90    0.2   320     1.5   961.1    0.00 
 126    7:20   0.08   50.9    90    0.4   305     1.5   961.1    0.00 
 126    7:30   0.08   51.3    89    0.3    28     1.9   961.0    0.00 
 126    7:40   0.08   51.0    91    0.7    62     2.2   961.0    0.00 
 126    7:50   0.08   51.0    91    1.5   176     3.9   961.0    0.00 
 126    8:00   0.08   51.0    91    1.6   167     3.1   961.1    0.00 
 126    8:10   0.12   51.5    90    1.0   165     2.6   960.9    0.00 
 126    8:20   0.13   52.2    88    0.7   158     2.6   960.8    0.00 
 126    8:30   0.14   52.3    87    1.3   170     3.3   960.6    0.00 
 126    8:40   0.19   53.1    85    1.1    53     2.5   960.4    0.00 
 126    8:50   0.24   53.4    84    1.0    30     2.9   960.3    0.00 
 126    9:00   0.30   54.4    82    0.6   159     2.2   960.2    0.00 
 126    9:10   0.29   54.8    81    0.9    57     3.4   960.1    0.00 
 126    9:20   0.26   54.8    81    1.7    26     5.0   960.1    0.00 
 126    9:30   0.35   55.8    79    0.8    25     2.4   960.0    0.00 
 126    9:40   0.59   57.2    77    4.2   160     9.9   959.9    0.00 
 126    9:50   0.52   56.5    79    5.8   164    10.0   959.9    0.00 
 126   10:00   0.69   57.5    77    6.3   162    11.1   959.8    0.00 
 126   10:10   0.51   57.0    78    8.1   158    12.9   959.9    0.00 
 126   10:20   0.65   57.1    78    4.9   138    12.1   959.9    0.00 
 126   10:30   0.79   58.0    76    7.5   146    12.9   959.9    0.00 
 126   10:40   0.63   58.6    76    6.3   135    12.9   959.9    0.00 
 126   10:50   0.68   58.5    75    6.9   132    10.6   959.9    0.00 
 126   11:00   0.49   58.2    76    5.7   134    11.3   959.9    0.00 
 126   11:10   0.40   57.1    78    6.5   147    13.7   960.0    0.00 
 126   11:20   0.40   57.3    79    4.6   136     9.0   960.1    0.00 
 126   11:30   0.43   56.6    80    8.2   151    14.7   960.1    0.00 
 126   11:40   0.43   56.2    81    6.1   139    12.6   960.2    0.00 
 126   11:50   0.52   56.2    81    8.0   151    13.0   960.3    0.00 
 126   12:00   0.42   55.4    82    8.1   157    12.9   960.4    0.00 
 126   12:10   0.30   55.1    83    7.0   148    11.0   960.5    0.00 
 126   12:20   0.18   54.3    85    5.0   141     9.6   960.7    0.00 
 126   12:30   0.11   54.2    85    4.9   140     9.3   960.7    0.00 
 126   12:40   0.09   53.7    86    4.7   139     8.2   960.8    0.00 
 126   12:50   0.07   53.3    87    5.2   152     9.7   960.9    0.00 
 126   13:00   0.05   52.7    88    5.0   164     8.8   961.1    0.00 
 126   13:10   0.04   52.0    90    4.2   154     9.3   961.2    0.00 
 126   13:20   0.03   51.8    91    3.6   137     6.4   961.7    0.00 
 126   13:30   0.02   51.6    92    2.9   127     6.6   962.0    0.00 
 126   13:40   0.01   51.5    93    2.0   136     4.8   962.1    0.00 
 126   13:50   0.01   51.3    94    1.9   136     3.7   962.2    0.01 
 126   14:00   0.01   51.1    95    1.0   147     2.4   962.0    0.07 
 126   14:10   0.01   50.8    97    1.5   124     3.7   961.9    0.02 
 126   14:20   0.01   50.8    97    0.9    53     3.8   961.9    0.01 
 126   14:30   0.01   51.0    97    0.7   174     2.0   962.0    0.02 
 126   14:40   0.02   51.1    98    2.1   166     4.4   962.1    0.02 
 126   14:50   0.03   51.1    98    1.8   115     4.8   962.2    0.03 
 126   15:00   0.04   51.1    98    1.8   114     5.6   962.2    0.02 
 126   15:10   0.05   51.3    98    1.0    69     2.5   962.1    0.01 
 126   15:20   0.07   51.8    98    0.8   279     2.0   962.1    0.01 
 126   15:30   0.08   51.9    98    0.6    99     1.5   962.1    0.00 
 126   15:40   0.12   52.5    98    0.1   186     0.8   961.8    0.00 
 126   15:50   0.09   53.0    97    1.0   162     2.3   961.8    0.00 
 126   16:00   0.06   53.0    97    0.8   170     1.9   961.7    0.00 
 126   16:10   0.07   52.8    97    1.3   149     2.0   961.7    0.01 
 126   16:20   0.07   52.7    97    1.1    52     2.2   961.7    0.00 
 126   16:30   0.08   53.1    98    0.7   188     2.3   961.6    0.01 
 126   16:40   0.08   53.3    97    0.3   138     1.8   961.5    0.00 
 126   16:50   0.06   53.5    97    1.1   354     2.5   961.5    0.00 
 126   17:00   0.04   53.3    98    2.8   354     7.6   961.8    0.00 
 126   17:10   0.04   53.3    98    1.8   335     5.0   961.9    0.00 
 126   17:20   0.04   53.3    98    1.4   344     2.9   962.0    0.00 
 126   17:30   0.04   53.4    98    0.4     6     1.2   961.8    0.00 
 126   17:40   0.04   53.4    98    0.6   356     2.0   961.6    0.00 
 126   17:50   0.04   53.4    98    0.9   357     1.8   961.3    0.00 
 126   18:00   0.03   53.4    98    1.4   330     2.6   960.9    0.00 
 126   18:10   0.02   53.4    98    1.0   162     3.1   960.8    0.00 
 126   18:20   0.03   53.4    99    3.6   167     4.5   960.7    0.00 
 126   18:30   0.04   53.4    99    1.6   152     4.1   960.8    0.00 
 126   18:40   0.03   53.6    99    1.9    70     3.6   961.2    0.00 
 126   18:50   0.02   53.7    99    0.7   152     2.0   961.2    0.00 
 126   19:00   0.01   53.6    99    1.4   162     2.6   961.4    0.00 
 126   19:10   0.01   53.5    99    0.4    96     1.9   961.4    0.00 
 126   19:20   0.00   53.3    98    2.7   142     6.2   961.4    0.00 
 126   19:30   0.00   53.0    98    0.8   104     2.5   961.3    0.00 
 126   19:40   0.00   52.9    98    0.3     3     2.1   961.5    0.00 
 126   19:50   0.00   52.8    98    2.1   161     5.9   961.6    0.00 
 126   20:00   0.00   52.4    97    2.6   166     4.4   961.8    0.00 
 126   20:10   0.00   52.1    98    3.9   161     6.4   961.9    0.00 
 126   20:20   0.00   51.9    97    2.8   154     4.6   962.0    0.00 
 126   20:30   0.00   52.0    97    2.0   171     4.6   962.1    0.00 
 126   20:40   0.00   51.9    97    2.5   149     6.1   962.2    0.00 
 126   20:50   0.00   51.5    97    2.3   137     4.5   962.3    0.00 
 126   21:00   0.00   51.4    97    0.9   149     2.2   962.5    0.00 
 126   21:10   0.00   51.4    97    1.2   154     3.4   962.6    0.00 
 126   21:20   0.00   51.2    97    2.3   160     4.2   962.6    0.00 
 126   21:30   0.00   51.1    98    0.2   172     1.1   962.6    0.00 
 126   21:40   0.00   51.3    98    0.7   176     2.1   962.6    0.00 
 126   21:50   0.00   50.9    98    2.1   163     4.6   962.5    0.00 
 126   22:00   0.00   50.6    97    2.2   158     4.2   962.5    0.00 
 126   22:10   0.00   50.6    98    1.1   152     3.0   962.6    0.00 
 126   22:20   0.00   50.7    98    0.7   152     2.1   962.6    0.00 
 126   22:30   0.00   50.6    98    3.0   161     4.9   962.6    0.00 
 126   22:40   0.00   50.3    98    2.0   157     3.8   962.5    0.00 
 126   22:50   0.00   50.4    98    2.1   146     3.8   962.4    0.00 
 126   23:00   0.00   50.3    98    2.3   158     3.9   962.3    0.00 
 126   23:10   0.00   50.5    98    0.1   262     0.9   962.3    0.00 
 126   23:20   0.00   50.6    98    0.1   147     1.2   962.4    0.00 
 126   23:30   0.00   50.6    98    0.0   141     0.7   962.4    0.00 
 126   23:40   0.00   50.7    98    0.0   168     0.7   962.4    0.00 
 126   23:50   0.00   50.6    98    1.9   146     3.7   962.4    0.00 
 127    0:00   0.00   50.4    98    0.8   132     2.9   962.3    0.00 
 127    0:10   0.00   50.5    98    0.0   148     0.7   962.4    0.00 
 127    0:20   0.00   50.5    98    0.8   188     1.3   962.2    0.00 
 127    0:30   0.00   50.5    98    0.2   206     1.2   962.1    0.00 
 127    0:40   0.00   50.6    98    0.0     0     0.0   961.9    0.00 
 127    0:50   0.00   50.6    98    0.2   188     0.9   961.7    0.00 
 127    1:00   0.00   50.6    98    0.0     0     0.0   961.5    0.00 
 127    1:10   0.00   50.6    98    0.1   183     0.7   961.4    0.00 
 127    1:20   0.00   50.5    98    0.1   184     0.8   961.3    0.00 
 127    1:30   0.00   50.3    98    0.7   159     1.6   961.3    0.00 
 127    1:40   0.00   50.1    99    1.5   175     2.2   961.2    0.00 
 127    1:50   0.00   50.0    99    1.5   146     2.6   961.2    0.00 
 127    2:00   0.00   50.0    99    1.1   162     1.9   961.2    0.00 
 127    2:10   0.00   49.9    99    2.1   172     3.2   961.1    0.00 
 127    2:20   0.00   49.8    99    1.1   174     2.2   961.0    0.00 
 127    2:30   0.00   49.9    99    0.9   168     1.8   961.1    0.00 
 127    2:40   0.00   50.1    99    1.3   170     2.4   961.1    0.00 
 127    2:50   0.00   50.1    99    1.3   182     2.4   961.0    0.00 
 127    3:00   0.00   50.2    99    0.0   202     0.7   961.0    0.00 
 127    3:10   0.00   50.1    99    0.0     0     0.0   961.0    0.00 
 127    3:20   0.00   50.1    98    0.2   167     0.8   960.8    0.00 
 127    3:30   0.00   50.1    98    0.2   168     1.1   960.6    0.00 

Return to Angelo Coast Range Reserve graphs page.


Western Regional Climate Center,wrcc@dri.edu